createdAt,value
2022-12-26T00:01:09.332Z,36.03
2022-12-26T00:03:37.411Z,53.30
2022-12-26T00:06:13.458Z,33.80
2022-12-26T00:08:41.853Z,94.63
2022-12-26T00:11:09.806Z,58.47
2022-12-26T00:13:41.360Z,37.53
2022-12-26T00:16:11.413Z,46.97
2022-12-26T00:18:39.778Z,36.23
2022-12-26T00:21:10.748Z,35.50
2022-12-26T00:23:39.386Z,34.33
2022-12-26T00:26:08.467Z,24.93
2022-12-26T00:28:36.764Z,34.00
2022-12-26T00:31:05.980Z,27.47
2022-12-26T00:33:35.346Z,55.17
2022-12-26T00:36:03.844Z,25.23
2022-12-26T00:38:33.239Z,33.03
2022-12-26T00:41:01.372Z,27.63
2022-12-26T00:43:29.313Z,42.37
2022-12-26T00:45:57.475Z,29.43
2022-12-26T00:48:25.565Z,25.40
2022-12-26T00:50:53.457Z,26.27
2022-12-26T00:53:22.038Z,47.90
2022-12-26T00:55:51.368Z,24.67
2022-12-26T00:58:19.692Z,39.40
2022-12-26T01:00:47.807Z,31.70
2022-12-26T01:03:16.231Z,40.20
2022-12-26T01:05:45.490Z,39.80
2022-12-26T01:08:21.184Z,33.87
2022-12-26T01:10:53.465Z,36.30
2022-12-26T01:13:21.377Z,32.33
2022-12-26T01:15:51.028Z,33.37
2022-12-26T01:18:19.757Z,30.50
2022-12-26T01:20:47.666Z,24.27
2022-12-26T01:23:15.693Z,24.57
2022-12-26T01:26:18.300Z,25.33
2022-12-26T01:28:33.435Z,30.57
2022-12-26T01:31:05.114Z,34.90
2022-12-26T01:33:33.777Z,25.03
2022-12-26T01:36:01.709Z,25.43
2022-12-26T01:38:29.757Z,27.03
2022-12-26T01:41:11.785Z,34.33
2022-12-26T01:43:56.398Z,28.47
2022-12-26T01:46:29.695Z,31.73
2022-12-26T01:49:01.555Z,27.37
2022-12-26T01:51:34.449Z,37.57
2022-12-26T01:54:38.251Z,40.13
2022-12-26T01:56:52.984Z,40.03
2022-12-26T01:59:25.892Z,49.13
2022-12-26T02:01:55.778Z,40.60
2022-12-26T02:04:46.564Z,46.30
2022-12-26T02:07:15.126Z,61.57
2022-12-26T02:09:43.253Z,47.40
2022-12-26T02:12:37.602Z,59.00
2022-12-26T02:15:08.941Z,62.47
2022-12-26T02:17:38.075Z,48.70
2022-12-26T02:20:17.776Z,65.87
2022-12-26T02:23:24.661Z,58.27
2022-12-26T02:26:29.891Z,45.73
2022-12-26T02:29:45.764Z,65.53
2022-12-26T02:32:23.117Z,47.63
2022-12-26T02:34:57.341Z,50.80
2022-12-26T02:37:42.636Z,59.57
2022-12-26T02:40:30.236Z,43.50
2022-12-26T02:43:00.434Z,49.63
2022-12-26T02:45:54.636Z,43.53
2022-12-26T02:48:32.757Z,55.87
2022-12-26T02:51:25.526Z,51.93
2022-12-26T02:54:20.080Z,41.93
2022-12-26T02:57:10.960Z,33.70
2022-12-26T03:00:05.002Z,34.87
2022-12-26T03:02:57.137Z,38.27
2022-12-26T03:05:50.474Z,29.23
2022-12-26T03:08:43.010Z,40.53
2022-12-26T03:11:29.014Z,47.00
2022-12-26T03:14:07.940Z,39.73
2022-12-26T03:16:53.372Z,58.67
2022-12-26T03:19:24.616Z,62.70
2022-12-26T03:21:54.246Z,64.43
2022-12-26T03:24:23.373Z,42.20
2022-12-26T03:26:54.224Z,54.93
2022-12-26T03:29:42.314Z,44.40
2022-12-26T03:32:12.370Z,40.53
2022-12-26T03:34:44.073Z,48.10
2022-12-26T03:37:47.718Z,50.23
2022-12-26T03:41:06.078Z,39.63
2022-12-26T03:44:21.733Z,52.60
2022-12-26T03:47:21.901Z,52.70
2022-12-26T03:50:15.216Z,46.43
2022-12-26T03:53:05.025Z,67.73
2022-12-26T03:55:56.870Z,61.33
2022-12-26T03:58:50.339Z,50.40
2022-12-26T04:01:38.714Z,43.03
2022-12-26T04:04:28.529Z,60.07
2022-12-26T04:07:17.920Z,59.60
2022-12-26T04:10:10.650Z,53.03
2022-12-26T04:12:58.953Z,63.63
2022-12-26T04:15:50.851Z,44.47
2022-12-26T04:18:42.642Z,42.27
2022-12-26T04:21:31.090Z,40.33
2022-12-26T04:24:21.111Z,36.47
2022-12-26T04:27:12.944Z,42.00
2022-12-26T04:29:58.500Z,43.37
2022-12-26T04:32:52.844Z,38.90
2022-12-26T04:35:42.695Z,34.73
2022-12-26T04:38:29.278Z,40.00
2022-12-26T04:41:18.188Z,35.23
2022-12-26T04:44:03.987Z,31.87
2022-12-26T04:46:33.137Z,31.63
2022-12-26T04:49:22.034Z,39.03
2022-12-26T04:51:50.251Z,41.10
2022-12-26T04:54:19.008Z,40.33
2022-12-26T04:56:46.958Z,48.40
2022-12-26T04:59:16.985Z,59.90
2022-12-26T05:02:02.630Z,50.83
2022-12-26T05:04:48.142Z,43.50
2022-12-26T05:07:36.319Z,35.70
2022-12-26T05:10:05.604Z,43.63
2022-12-26T05:12:33.426Z,39.47
2022-12-26T05:15:02.702Z,33.23
2022-12-26T05:17:48.011Z,42.83
2022-12-26T05:20:33.312Z,46.70
2022-12-26T05:23:20.777Z,50.07
2022-12-26T05:26:07.384Z,56.53
2022-12-26T05:28:44.514Z,44.70
2022-12-26T05:31:15.486Z,50.37
2022-12-26T05:34:01.161Z,68.53
2022-12-26T05:36:31.846Z,60.77
2022-12-26T05:39:00.588Z,59.37
2022-12-26T05:41:28.717Z,73.97
2022-12-26T05:43:56.743Z,57.63
2022-12-26T05:46:26.366Z,52.10
2022-12-26T05:48:54.411Z,48.67
2022-12-26T05:51:22.315Z,58.03
2022-12-26T05:53:50.382Z,46.30
2022-12-26T05:56:19.743Z,38.30
2022-12-26T05:58:48.013Z,48.47
2022-12-26T06:01:17.958Z,40.17
2022-12-26T06:03:50.301Z,42.47
2022-12-26T06:06:19.519Z,42.70
2022-12-26T06:08:49.918Z,48.10
2022-12-26T06:11:18.599Z,51.47
2022-12-26T06:13:46.567Z,48.23
2022-12-26T06:16:17.661Z,52.17
2022-12-26T06:18:46.177Z,49.43
2022-12-26T06:21:17.764Z,50.27
2022-12-26T06:23:46.145Z,48.27
2022-12-26T06:26:14.338Z,48.27
2022-12-26T06:28:43.450Z,43.20
2022-12-26T06:31:15.073Z,49.47
2022-12-26T06:33:43.483Z,48.90
2022-12-26T06:36:13.584Z,44.40
2022-12-26T06:38:43.447Z,49.67
2022-12-26T06:41:13.705Z,44.27
2022-12-26T06:43:42.130Z,47.70
2022-12-26T06:46:14.346Z,44.17
2022-12-26T06:48:42.531Z,49.80
2022-12-26T06:51:12.863Z,40.23
2022-12-26T06:53:42.613Z,45.03
2022-12-26T06:56:12.507Z,43.63
2022-12-26T06:58:40.914Z,38.90
2022-12-26T07:01:10.868Z,44.67
2022-12-26T07:03:41.998Z,41.23
2022-12-26T07:06:21.971Z,46.83
2022-12-26T07:08:51.986Z,50.23
2022-12-26T07:11:22.005Z,48.83
2022-12-26T07:13:50.123Z,46.13
2022-12-26T07:16:18.086Z,45.27
2022-12-26T07:18:46.067Z,48.83
2022-12-26T07:21:16.245Z,50.17
2022-12-26T07:23:44.512Z,51.10
2022-12-26T07:26:13.944Z,53.07
2022-12-26T07:28:41.957Z,51.17
2022-12-26T07:31:10.245Z,48.23
2022-12-26T07:33:38.186Z,51.23
2022-12-26T07:36:07.713Z,44.27
2022-12-26T07:38:35.608Z,42.30
2022-12-26T07:41:24.130Z,46.13
2022-12-26T07:43:53.754Z,44.77
2022-12-26T07:46:22.162Z,46.77
2022-12-26T07:48:50.227Z,45.27
2022-12-26T07:51:18.103Z,42.77
2022-12-26T07:53:45.984Z,39.57
2022-12-26T07:56:13.889Z,44.17
2022-12-26T07:58:41.828Z,39.47
2022-12-26T08:01:11.407Z,41.03
2022-12-26T08:03:39.609Z,41.70
2022-12-26T08:06:07.864Z,36.00
2022-12-26T08:08:35.821Z,36.17
2022-12-26T08:11:05.507Z,40.90
2022-12-26T08:13:33.922Z,44.17
2022-12-26T08:16:06.051Z,42.33
2022-12-26T08:18:35.916Z,42.90
2022-12-26T08:21:03.803Z,43.13
2022-12-26T08:23:31.842Z,48.03
2022-12-26T08:25:59.645Z,47.60
2022-12-26T08:28:27.483Z,44.20
2022-12-26T08:30:55.341Z,45.83
2022-12-26T08:33:23.354Z,46.70
2022-12-26T08:35:52.691Z,44.10
2022-12-26T08:38:20.574Z,48.17
2022-12-26T08:40:56.010Z,48.63
2022-12-26T08:46:13.621Z,44.77
2022-12-26T08:48:42.339Z,41.80
2022-12-26T08:51:16.234Z,42.47
2022-12-26T08:53:45.792Z,47.23
2022-12-26T08:56:16.306Z,40.93
2022-12-26T08:58:45.486Z,47.83
2022-12-26T09:01:15.383Z,47.30
2022-12-26T09:03:44.426Z,45.80
2022-12-26T09:06:14.919Z,49.57
2022-12-26T09:08:43.114Z,51.97
2022-12-26T09:11:12.969Z,52.33
2022-12-26T09:13:41.778Z,50.60
2022-12-26T09:16:12.055Z,51.13
2022-12-26T09:18:40.487Z,53.13
2022-12-26T09:21:10.600Z,53.27
2022-12-26T09:23:40.717Z,52.30
2022-12-26T09:26:11.491Z,52.10
2022-12-26T09:28:39.816Z,50.70
2022-12-26T09:31:10.855Z,53.97
2022-12-26T09:33:39.797Z,54.67
2022-12-26T09:36:14.295Z,52.70
2022-12-26T09:38:44.796Z,50.67
2022-12-26T09:41:26.004Z,51.03
2022-12-26T09:44:02.711Z,49.73
2022-12-26T09:46:34.316Z,49.73
2022-12-26T09:49:05.948Z,54.47
2022-12-26T09:51:35.454Z,54.63
2022-12-26T09:54:07.959Z,55.30
2022-12-26T09:59:29.593Z,54.87
2022-12-26T10:01:57.551Z,58.83
2022-12-26T10:04:29.914Z,58.83
2022-12-26T10:07:07.095Z,56.03
2022-12-26T10:09:55.180Z,53.17
2022-12-26T10:12:37.601Z,53.47
2022-12-26T10:15:19.279Z,51.03
2022-12-26T10:17:53.523Z,52.97
2022-12-26T10:20:29.054Z,58.53
2022-12-26T10:23:19.881Z,51.77
2022-12-26T10:25:52.077Z,50.37
2022-12-26T10:28:29.503Z,51.63
2022-12-26T10:30:59.897Z,49.17
2022-12-26T10:33:36.312Z,48.47
2022-12-26T10:36:04.491Z,48.20
2022-12-26T10:38:38.197Z,45.77
2022-12-26T10:41:12.320Z,43.43
2022-12-26T10:43:44.716Z,43.40
2022-12-26T10:46:29.511Z,41.73
2022-12-26T10:48:57.797Z,35.83
2022-12-26T10:51:26.023Z,35.87
2022-12-26T10:53:55.733Z,33.43
2022-12-26T10:56:26.596Z,35.37
2022-12-26T10:59:01.541Z,32.33
2022-12-26T11:01:35.177Z,32.37
2022-12-26T11:04:04.738Z,37.07
2022-12-26T11:06:35.141Z,33.37
2022-12-26T11:09:03.273Z,35.43
2022-12-26T11:11:46.628Z,39.07
2022-12-26T11:14:33.684Z,32.43
2022-12-26T11:17:05.916Z,31.87
2022-12-26T11:19:36.482Z,36.83
2022-12-26T11:22:23.949Z,30.33
2022-12-26T11:25:20.485Z,32.10
2022-12-26T11:27:51.688Z,33.37
2022-12-26T11:30:24.480Z,28.97
2022-12-26T11:33:09.969Z,33.73
2022-12-26T11:35:49.584Z,27.27
2022-12-26T11:38:42.602Z,31.40
2022-12-26T11:41:36.471Z,27.23
2022-12-26T11:44:15.713Z,27.07
2022-12-26T11:46:48.363Z,23.47
2022-12-26T11:49:22.035Z,26.80
2022-12-26T11:51:58.460Z,26.83
2022-12-26T11:54:34.245Z,25.93
2022-12-26T11:57:12.633Z,27.17
2022-12-26T11:59:41.967Z,26.73
2022-12-26T12:02:28.115Z,25.33
2022-12-26T12:05:01.051Z,26.53
2022-12-26T12:08:01.784Z,26.87
2022-12-26T12:10:49.516Z,25.23
2022-12-26T12:13:28.156Z,22.90
2022-12-26T12:16:07.441Z,23.40
2022-12-26T12:18:50.096Z,25.57
2022-12-26T12:21:26.888Z,21.60
2022-12-26T12:24:11.911Z,20.23
2022-12-26T12:26:51.151Z,20.90
2022-12-26T12:29:42.263Z,19.93
2022-12-26T12:32:17.895Z,24.20
2022-12-26T12:35:08.454Z,20.27
2022-12-26T12:37:46.130Z,17.97
2022-12-26T12:40:27.827Z,18.43
2022-12-26T12:43:03.204Z,16.53
2022-12-26T12:45:34.666Z,18.90
2022-12-26T12:48:26.780Z,18.67
2022-12-26T12:51:03.168Z,18.03
2022-12-26T12:53:44.937Z,19.20
2022-12-26T12:56:27.840Z,17.40
2022-12-26T12:59:02.848Z,16.87
2022-12-26T13:01:36.347Z,15.73
2022-12-26T13:04:11.573Z,15.87
2022-12-26T13:06:43.506Z,17.00
2022-12-26T13:09:16.537Z,15.67
2022-12-26T13:11:49.915Z,15.07
2022-12-26T13:14:21.866Z,17.07
2022-12-26T13:16:56.852Z,15.67
2022-12-26T13:19:29.840Z,13.87
2022-12-26T13:22:02.420Z,15.07
2022-12-26T13:24:34.931Z,14.43
2022-12-26T13:27:11.094Z,11.00
2022-12-26T13:29:41.114Z,11.00
2022-12-26T13:32:20.615Z,10.77
2022-12-26T13:34:50.614Z,13.70
2022-12-26T13:37:57.100Z,8.57
2022-12-26T13:40:28.690Z,11.60
2022-12-26T13:43:18.911Z,10.20
2022-12-26T13:45:57.161Z,8.00
2022-12-26T13:48:57.433Z,6.73
2022-12-26T13:51:53.743Z,7.13
2022-12-26T13:54:23.473Z,7.23
2022-12-26T13:57:18.827Z,4.23
2022-12-26T14:00:04.960Z,2.63
2022-12-26T14:03:17.243Z,1.87
2022-12-26T14:05:58.824Z,2.23
2022-12-26T14:08:37.323Z,1.10
2022-12-26T14:11:20.253Z,3.70
2022-12-26T14:13:57.596Z,2.20
2022-12-26T14:16:35.202Z,1.70
2022-12-26T14:19:17.199Z,2.30
2022-12-26T14:21:53.122Z,2.47
2022-12-26T14:24:31.994Z,3.13
2022-12-26T14:27:23.586Z,4.83
2022-12-26T14:29:58.855Z,2.97
2022-12-26T14:32:34.925Z,4.37
2022-12-26T14:35:11.038Z,5.47
2022-12-26T14:37:48.246Z,5.40
2022-12-26T14:40:29.993Z,3.23
2022-12-26T14:43:28.461Z,6.17
2022-12-26T14:45:57.563Z,4.10
2022-12-26T14:48:49.270Z,4.40
2022-12-26T14:51:39.229Z,4.27
2022-12-26T14:54:36.383Z,1.90
2022-12-26T14:57:52.127Z,6.77
2022-12-26T15:00:33.909Z,7.17
2022-12-26T15:03:28.237Z,6.47
2022-12-26T15:06:14.605Z,8.37
2022-12-26T15:09:00.908Z,4.47
2022-12-26T15:12:03.410Z,4.23
2022-12-26T15:14:58.405Z,5.83
2022-12-26T15:17:38.032Z,7.13
2022-12-26T15:20:37.049Z,6.60
2022-12-26T15:23:45.844Z,4.77
2022-12-26T15:26:43.160Z,5.30
2022-12-26T15:29:40.557Z,4.43
2022-12-26T15:32:15.424Z,6.73
2022-12-26T15:35:07.221Z,10.90
2022-12-26T15:38:04.580Z,10.37
2022-12-26T15:40:36.887Z,6.93
2022-12-26T15:43:47.688Z,7.97
2022-12-26T15:46:21.205Z,9.40
2022-12-26T15:49:08.051Z,9.20
2022-12-26T15:51:55.572Z,11.57
2022-12-26T15:54:38.421Z,9.13
2022-12-26T15:57:16.000Z,12.73
2022-12-26T16:00:07.105Z,10.23
2022-12-26T16:02:46.883Z,17.90
2022-12-26T16:05:34.306Z,15.33
2022-12-26T16:08:16.142Z,6.83
2022-12-26T16:10:44.571Z,8.33
2022-12-26T16:13:22.730Z,7.20
2022-12-26T16:15:52.778Z,9.40
2022-12-26T16:18:22.608Z,8.17
2022-12-26T16:21:18.947Z,8.43
2022-12-26T16:23:50.526Z,10.03
2022-12-26T16:26:20.501Z,9.43
2022-12-26T16:28:48.498Z,7.40
2022-12-26T16:31:22.088Z,8.27
2022-12-26T16:33:52.900Z,11.20
2022-12-26T16:36:22.952Z,71.67
2022-12-26T16:38:53.398Z,10.87
2022-12-26T16:41:22.997Z,8.50
2022-12-26T16:43:52.542Z,12.53
2022-12-26T16:46:23.124Z,11.43
2022-12-26T16:48:56.181Z,16.20
2022-12-26T16:51:41.560Z,8.30
2022-12-26T16:54:18.854Z,10.80
2022-12-26T16:56:50.871Z,13.53
2022-12-26T16:59:20.993Z,10.87
2022-12-26T17:01:50.716Z,12.07
2022-12-26T17:04:21.120Z,10.90
2022-12-26T17:06:52.366Z,10.33
2022-12-26T17:09:23.931Z,14.23
2022-12-26T17:11:55.674Z,11.93
2022-12-26T17:14:27.237Z,11.53
2022-12-26T17:16:59.696Z,7.57
2022-12-26T17:19:30.258Z,10.63
2022-12-26T17:22:22.560Z,11.60
2022-12-26T17:24:52.938Z,9.87
2022-12-26T17:27:23.538Z,15.50
2022-12-26T17:29:55.319Z,9.63
2022-12-26T17:32:34.261Z,12.10
2022-12-26T17:35:05.128Z,10.00
2022-12-26T17:37:33.396Z,13.07
2022-12-26T17:40:09.269Z,11.53
2022-12-26T17:42:47.280Z,11.90
2022-12-26T17:45:17.766Z,14.47
2022-12-26T17:47:45.956Z,11.77
2022-12-26T17:50:13.997Z,9.17
2022-12-26T17:52:42.987Z,12.87
2022-12-26T17:55:17.693Z,10.03
2022-12-26T17:57:45.563Z,13.37
2022-12-26T18:00:18.748Z,9.83
2022-12-26T18:02:46.700Z,11.80
2022-12-26T18:05:15.527Z,18.03
2022-12-26T18:07:44.244Z,14.80
2022-12-26T18:10:19.769Z,10.47
2022-12-26T18:12:48.299Z,11.63
2022-12-26T18:15:16.416Z,11.23
2022-12-26T18:17:45.020Z,10.53
2022-12-26T18:20:17.915Z,15.30
2022-12-26T18:22:47.496Z,10.63
2022-12-26T18:25:16.613Z,11.33
2022-12-26T18:27:46.050Z,13.60
2022-12-26T18:30:17.871Z,13.20
2022-12-26T18:32:46.567Z,8.73
2022-12-26T18:35:14.760Z,9.50
2022-12-26T18:37:46.723Z,14.30
2022-12-26T18:40:28.757Z,12.23
2022-12-26T18:42:58.072Z,8.43
2022-12-26T18:45:26.208Z,13.03
2022-12-26T18:47:54.124Z,9.57
2022-12-26T18:50:22.006Z,8.83
2022-12-26T18:52:53.507Z,11.23
2022-12-26T18:55:22.694Z,10.13
2022-12-26T18:57:50.884Z,13.13
2022-12-26T19:00:21.644Z,13.37
2022-12-26T19:02:50.282Z,11.27
2022-12-26T19:05:20.453Z,11.50
2022-12-26T19:07:50.071Z,10.93
2022-12-26T19:10:20.147Z,11.53
2022-12-26T19:12:48.340Z,17.40
2022-12-26T19:15:16.442Z,13.57
2022-12-26T19:17:45.876Z,10.50
2022-12-26T19:20:18.898Z,8.07
2022-12-26T19:22:47.509Z,9.70
2022-12-26T19:25:16.194Z,11.43
2022-12-26T19:27:44.428Z,16.30
2022-12-26T19:30:13.207Z,14.73
2022-12-26T19:32:42.534Z,15.47
2022-12-26T19:35:12.705Z,8.80
2022-12-26T19:37:41.166Z,14.50
2022-12-26T19:40:11.499Z,10.73
2022-12-26T19:42:39.622Z,9.40
2022-12-26T19:45:09.747Z,10.03
2022-12-26T19:47:38.291Z,10.30
2022-12-26T19:50:08.033Z,12.47
2022-12-26T19:52:38.700Z,10.10
2022-12-26T19:55:08.154Z,12.67
2022-12-26T19:57:36.067Z,9.30
2022-12-26T20:00:04.155Z,16.23
2022-12-26T20:02:40.108Z,12.90
2022-12-26T20:05:09.188Z,27.20
2022-12-26T20:07:38.616Z,10.33
2022-12-26T20:10:07.125Z,14.67
2022-12-26T20:12:35.084Z,11.00
2022-12-26T20:15:02.937Z,12.67
2022-12-26T20:17:30.806Z,14.70
2022-12-26T20:19:58.723Z,13.20
2022-12-26T20:22:27.120Z,16.67
2022-12-26T20:24:56.333Z,14.50
2022-12-26T20:27:24.204Z,9.27
2022-12-26T20:29:52.058Z,13.70
2022-12-26T20:32:19.920Z,7.53
2022-12-26T20:34:47.743Z,10.47
2022-12-26T20:37:15.562Z,12.10
2022-12-26T20:39:43.562Z,10.70
2022-12-26T20:42:15.559Z,10.00
2022-12-26T20:44:43.593Z,7.10
2022-12-26T20:47:11.460Z,29.40
2022-12-26T20:49:39.315Z,10.67
2022-12-26T20:52:07.164Z,17.20
2022-12-26T20:54:35.160Z,15.73
2022-12-26T20:57:03.618Z,15.30
2022-12-26T20:59:32.916Z,13.53
2022-12-26T21:02:00.893Z,10.77
2022-12-26T21:04:28.914Z,10.57
2022-12-26T21:06:56.806Z,10.47
2022-12-26T21:09:24.886Z,8.53
2022-12-26T21:11:52.850Z,6.57
2022-12-26T21:14:22.392Z,8.70
2022-12-26T21:16:53.849Z,12.87
2022-12-26T21:19:24.314Z,9.13
2022-12-26T21:21:54.775Z,9.27
2022-12-26T21:24:24.687Z,11.63
2022-12-26T21:26:53.259Z,10.13
2022-12-26T21:29:23.081Z,9.67
2022-12-26T21:31:53.099Z,7.57
2022-12-26T21:34:22.882Z,11.67
2022-12-26T21:37:05.400Z,8.40
2022-12-26T21:39:34.538Z,7.23
2022-12-26T21:42:02.816Z,10.43
2022-12-26T21:44:30.923Z,8.70
2022-12-26T21:47:00.417Z,10.27
2022-12-26T21:49:28.683Z,9.77
2022-12-26T21:51:56.476Z,8.83
2022-12-26T21:54:48.364Z,9.97
2022-12-26T21:57:16.978Z,10.37
2022-12-26T21:59:57.313Z,6.67
2022-12-26T22:02:46.463Z,12.07
2022-12-26T22:05:14.919Z,9.23
2022-12-26T22:07:43.273Z,14.50
2022-12-26T22:10:33.403Z,7.60
2022-12-26T22:13:01.490Z,8.77
2022-12-26T22:15:46.943Z,7.40
2022-12-26T22:18:16.242Z,8.50
2022-12-26T22:20:45.863Z,5.50
2022-12-26T22:23:14.172Z,11.37
2022-12-26T22:25:42.065Z,8.00
2022-12-26T22:28:09.845Z,14.93
2022-12-26T22:30:37.829Z,10.33
2022-12-26T22:33:05.778Z,12.10
2022-12-26T22:35:35.196Z,6.33
2022-12-26T22:38:03.066Z,10.87
2022-12-26T22:40:30.923Z,11.03
2022-12-26T22:42:58.781Z,13.63
2022-12-26T22:45:26.657Z,9.57
2022-12-26T22:47:54.478Z,10.70
2022-12-26T22:50:22.353Z,9.30
2022-12-26T22:52:52.069Z,6.10
2022-12-26T22:55:19.893Z,13.00
2022-12-26T22:57:52.329Z,8.20
2022-12-26T23:00:20.612Z,9.87
2022-12-26T23:02:48.534Z,6.33
2022-12-26T23:05:17.232Z,10.90
2022-12-26T23:07:45.739Z,13.57
2022-12-26T23:10:21.480Z,9.93
2022-12-26T23:12:49.957Z,8.47
2022-12-26T23:15:20.025Z,10.60
2022-12-26T23:18:10.061Z,6.13
2022-12-26T23:20:58.064Z,7.13
2022-12-26T23:23:26.708Z,9.40
2022-12-26T23:25:55.938Z,8.33
2022-12-26T23:28:41.305Z,7.90
2022-12-26T23:31:09.308Z,9.90
2022-12-26T23:33:37.396Z,6.37
2022-12-26T23:36:05.697Z,8.50
2022-12-26T23:38:33.516Z,9.07
2022-12-26T23:41:02.860Z,9.70
2022-12-26T23:43:33.357Z,6.00
2022-12-26T23:46:01.556Z,7.93
2022-12-26T23:48:29.551Z,5.80
2022-12-26T23:51:04.608Z,10.67
2022-12-26T23:53:32.470Z,6.60
2022-12-26T23:56:01.701Z,8.50
2022-12-26T23:58:30.218Z,9.73
